ECN weather

Ercan International Airport
Nicosia, Nicosia District, Cyprus

Public forecast

Using degrees Celsius for public forecast. Weather courtesy of forecast.io.

Current aviation weather report (METAR) for Ercan International Airport

Retrieved 2019/11/15 07:20 UTC (0 seconds ago):

LCEN 150720Z 09012KT 9999 FEW025CB SCT100 BKN200 24/17 Q1014 NOSIG

Aviation forecast (TAF) for Ercan International Airport

Retrieved 2019/11/15 06:03 UTC (1 hour ago):

TAF TAF LCEN 150440Z 1506/1606 08008KT 9999 FEW025 BKN100 TEMPO 1506/1509 -SHRA TEMPO 1509/1512 5000 TSRA TEMPO 1512/1515 3000 TSRA FEW020CB BKN025 BKN080